AirNav   Textron
 
 1622 users online  

26WI Kitty-Wompus Airport
Exeland, Wisconsin, USA

GOING TO EXELAND?


FAA INFORMATION EFFECTIVE 20 JULY 2017

Location

FAA Identifier: 26WI
Lat/Long: 45-41-56.8500N / 091-18-12.5700W
45-41.947500N / 091-18.209500W
45.6991250 / -91.3034917
(estimated)
Elevation: 1336 ft. / 407 m (estimated)
Variation: 01E (1990)
From city: 4 miles NW of EXELAND, WI
Time zone: UTC -5 (UTC -6 during Standard Time)
Zip code: 54835

Airport Operations

Airport use: Private use. Permission required prior to landing
Activation date: 03/1993
Control tower: no
ARTCC: MINNEAPOLIS CENTER
FSS: GREEN BAY FLIGHT SERVICE STATION
NOTAMs facility: FDC (NOTAM-D service not available)
Attendance: UNATNDD
Wind indicator: yes
Segmented circle: no

Airport Communications

WX AWOS-3 at RCX (18 nm SE): 118.125 (715-532-2665)

Nearby radio navigation aids

VOR radial/distance  VOR name  Freq  Var
HYRr160/20.1HAYWARD VOR/DME113.4003E

 
NDB name  Hdg/Dist  Freq  Var  ID
RUSK COUNTY313/17.435600WRCX .-. -.-. -..-
PARK FALLS248/39.737101WPKF .--. -.- ..-.

Airport Services

Runway Information

Runway 16/34

Dimensions: 3000 x 200 ft. / 914 x 61 m
Surface: turf
RUNWAY 16  RUNWAY 34
Traffic pattern: leftleft
Obstructions: roadtrees

Airport Ownership and Management from official FAA records

Ownership: Privately-owned
Owner: JORDAN A. ARVOLD
1339 HUNGERFORD PT.
ST. CROIX FALLS, WI 54024
Phone 715-483-9783
Manager: JORDAN A. ARVOLD
1339 HUNGERFORD PT.
ST. CROIX FALLS, WI 54024
Phone 715-483-9783

Instrument Procedures

There are no published instrument procedures at 26WI.

Some nearby airports with instrument procedures:

KRCX - Rusk County Airport (18 nm SE)
KHYR - Sawyer County Airport (20 nm N)
KRPD - Rice Lake Regional Airport - Carl's Field (26 nm SW)
KSSQ - Shell Lake Municipal Airport (26 nm W)
Y23 - Chetek Municipal-Southworth Airport (27 nm SW)
 
Loc | Ops | Rwys | IFR | FBO | Links
Com | Nav | Svcs | Stats | Notes


 
Area around 26WI (Kitty-Wompus Airport)
 
Road maps at: MapQuest Bing Google
 
Aerial photo
No photo
 
Sectional chart

 
Airport distance calculator
Flying to Kitty-Wompus Airport? Find the distance to fly.

From to 26WI

Sunrise and sunset
Times for 24-Jul-2017
 Local
(UTC-5)
 Zulu
(UTC)
Morning civil twilight05:0510:05
Sunrise05:4010:40
Sunset20:4301:43
Evening civil twilight21:1802:18

Current date and time
Zulu (UTC)  24-Jul-2017 15:52:04
Local (UTC-5)  24-Jul-2017 10:52:04
 
METAR
KRCX 
18nm SE 
241535Z AUTO 17003KT 10SM OVC011 16/12 A3014 RMK AO2 T01560122
KHYR 
20nm N 
241453Z AUTO 10005KT 10SM CLR 18/13 A3011 RMK AO2 SLP197 T01830128 50002
KRPD 
22nm SW 
241535Z AUTO 13005KT 10SM BKN012 17/13 A3013 RMK AO2 T01680128
KY23 
27nm SW 
241535Z AUTO 10004KT 10SM OVC008 16/13 A3011 RMK AO2 T01560133
KUBE 
31nm W 
241535Z AUTO 09004KT 10SM SCT013 17/13 A3010 RMK AO2
TAF
KHYR 
20nm N 
241139Z 2412/2512 VRB03KT 1/4SM FG VV002 TEMPO 2412/2413 3SM BR SCT004 FM241300 15005KT P6SM SKC TEMPO 2413/2414 3SM BR FM241700 17006KT P6SM SCT050 FM250100 15004KT P6SM SKC FM250700 18003KT 4SM BR FEW015
NOTAMs
Click for the latest NOTAMs
NOTAMs are issued by the DoD/FAA and will open in a separate window not controlled by AirNav.

 

 
 

Would you like to see your business listed on this page?

 If your business provides an interesting product or service to pilots, flight crews, aircraft, or users of the Kitty-Wompus Airport, you should consider listing it here.  To start the listing process, click on the button below
 
Add a business
 

Other Pages about Kitty-Wompus Airport

Update a link
 
Copyright © AirNav, LLC. All rights reserved. Privacy Policy  Contact